createdAt,value
2019-04-06T00:00:10.078Z,489.44
2019-04-06T00:01:10.055Z,487.05
2019-04-06T00:02:10.055Z,485.08
2019-04-06T00:03:10.042Z,489.58
2019-04-06T00:04:10.015Z,487.52
2019-04-06T00:05:10.013Z,479.63
2019-04-06T00:06:10.045Z,487.74
2019-04-06T00:07:10.004Z,487.83
2019-04-06T00:08:09.979Z,486.38
2019-04-06T00:09:09.961Z,492.44
2019-04-06T00:10:09.953Z,487.67
2019-04-06T00:11:09.950Z,487.32
2019-04-06T00:12:09.969Z,485.17
2019-04-06T00:13:09.916Z,489.89
2019-04-06T00:14:09.919Z,488.92
2019-04-06T00:15:09.898Z,488.46
2019-04-06T00:16:09.882Z,489.35
2019-04-06T00:17:09.879Z,491.55
2019-04-06T00:18:09.869Z,490.63
2019-04-06T00:19:09.858Z,488.38
2019-04-06T00:20:09.841Z,490.93
2019-04-06T00:21:09.828Z,487.69
2019-04-06T00:22:09.825Z,488.86
2019-04-06T00:23:09.817Z,488.70
2019-04-06T00:24:09.803Z,488.53
2019-04-06T00:25:09.858Z,485.22
2019-04-06T00:26:09.769Z,487.89
2019-04-06T00:27:09.791Z,485.18
2019-04-06T00:28:09.774Z,483.76
2019-04-06T00:29:09.758Z,491.46
2019-04-06T00:30:09.723Z,486.41
2019-04-06T00:31:09.731Z,487.72
2019-04-06T00:32:09.739Z,489.58
2019-04-06T00:33:09.694Z,484.41
2019-04-06T00:34:09.679Z,486.72
2019-04-06T00:35:09.691Z,491.56
2019-04-06T00:36:09.654Z,489.52
2019-04-06T00:37:09.645Z,487.43
2019-04-06T00:38:09.653Z,483.37
2019-04-06T00:39:09.629Z,486.72
2019-04-06T00:40:09.622Z,487.13
2019-04-06T00:41:09.646Z,486.30
2019-04-06T00:42:09.596Z,483.28
2019-04-06T00:43:09.597Z,487.58
2019-04-06T00:44:09.596Z,487.06
2019-04-06T00:45:09.569Z,488.67
2019-04-06T00:46:09.563Z,485.06
2019-04-06T00:47:09.583Z,487.49
2019-04-06T00:48:09.555Z,489.77
2019-04-06T00:49:09.526Z,489.22
2019-04-06T00:50:09.522Z,486.46
2019-04-06T00:51:09.495Z,486.63
2019-04-06T00:52:09.493Z,490.72
2019-04-06T00:53:09.498Z,487.32
2019-04-06T00:54:09.467Z,489.72
2019-04-06T00:55:09.450Z,485.78
2019-04-06T00:56:09.445Z,488.62
2019-04-06T00:57:09.425Z,489.96
2019-04-06T00:58:09.429Z,488.07
2019-04-06T00:59:09.398Z,482.91
2019-04-06T01:00:09.398Z,488.23
2019-04-06T01:01:09.376Z,488.02
2019-04-06T01:02:09.381Z,488.83
2019-04-06T01:03:09.384Z,487.90
2019-04-06T01:04:09.364Z,484.50
2019-04-06T01:05:09.350Z,485.85
2019-04-06T01:06:09.333Z,488.73
2019-04-06T01:07:09.323Z,488.40
2019-04-06T01:08:09.331Z,489.67
2019-04-06T01:09:09.305Z,489.43
2019-04-06T01:10:09.286Z,488.18
2019-04-06T01:11:09.273Z,487.72
2019-04-06T01:12:09.263Z,489.74
2019-04-06T01:13:09.276Z,489.02
2019-04-06T01:14:09.246Z,488.65
2019-04-06T01:15:09.240Z,489.55
2019-04-06T01:16:09.223Z,489.68
2019-04-06T01:17:09.204Z,490.44
2019-04-06T01:18:09.231Z,491.68
2019-04-06T01:19:09.299Z,488.98
2019-04-06T01:20:09.184Z,488.90
2019-04-06T01:21:09.159Z,489.16
2019-04-06T01:22:09.156Z,490.81
2019-04-06T01:23:09.141Z,488.84
2019-04-06T01:24:09.145Z,488.21
2019-04-06T01:25:09.135Z,489.78
2019-04-06T01:26:09.127Z,490.71
2019-04-06T01:27:09.099Z,487.74
2019-04-06T01:28:09.099Z,489.36
2019-04-06T01:29:09.116Z,490.90
2019-04-06T01:30:09.059Z,488.73
2019-04-06T01:31:09.059Z,490.11
2019-04-06T01:32:09.036Z,488.88
2019-04-06T01:33:09.067Z,487.94
2019-04-06T01:34:09.032Z,488.02
2019-04-06T01:35:09.027Z,487.69
2019-04-06T01:36:08.996Z,488.45
2019-04-06T01:37:09.000Z,488.71
2019-04-06T01:38:09.002Z,489.00
2019-04-06T01:39:08.983Z,490.37
2019-04-06T01:40:08.948Z,488.43
2019-04-06T01:41:08.953Z,489.99
2019-04-06T01:42:08.924Z,490.47
2019-04-06T01:43:08.984Z,490.34
2019-04-06T01:44:08.933Z,490.21
2019-04-06T01:45:08.893Z,490.93
2019-04-06T01:46:08.887Z,491.36
2019-04-06T01:47:08.864Z,489.91
2019-04-06T01:48:08.866Z,487.25
2019-04-06T01:49:08.885Z,490.64
2019-04-06T01:50:08.838Z,492.64
2019-04-06T01:51:08.871Z,491.31
2019-04-06T01:52:08.907Z,491.50
2019-04-06T01:53:08.806Z,491.18
2019-04-06T01:54:08.822Z,491.37
2019-04-06T01:55:08.883Z,491.96
2019-04-06T01:56:17.893Z,491.66
2019-04-06T01:57:09.824Z,490.28
2019-04-06T01:58:08.837Z,487.67
2019-04-06T01:59:08.756Z,493.10
2019-04-06T02:00:08.737Z,490.47
2019-04-06T02:01:08.721Z,491.22
2019-04-06T02:02:08.699Z,493.23
2019-04-06T02:03:08.701Z,490.63
2019-04-06T02:04:08.700Z,493.01
2019-04-06T02:05:08.675Z,491.08
2019-04-06T02:06:08.654Z,491.60
2019-04-06T02:07:08.763Z,495.02
2019-04-06T02:08:08.636Z,491.21
2019-04-06T02:09:08.644Z,493.46
2019-04-06T02:10:08.622Z,493.98
2019-04-06T02:11:08.604Z,496.21
2019-04-06T02:12:08.592Z,492.00
2019-04-06T02:13:08.639Z,495.14
2019-04-06T02:14:08.594Z,492.82
2019-04-06T02:15:08.562Z,494.51
2019-04-06T02:16:08.549Z,493.85
2019-04-06T02:17:08.575Z,494.87
2019-04-06T02:18:08.529Z,491.24
2019-04-06T02:19:08.545Z,491.69
2019-04-06T02:20:08.513Z,489.78
2019-04-06T02:21:08.513Z,492.28
2019-04-06T02:22:08.498Z,491.14
2019-04-06T02:23:08.477Z,491.56
2019-04-06T02:24:08.474Z,490.11
2019-04-06T02:25:08.460Z,490.53
2019-04-06T02:26:08.447Z,491.80
2019-04-06T02:27:08.433Z,490.60
2019-04-06T02:28:08.438Z,490.91
2019-04-06T02:29:08.415Z,492.49
2019-04-06T02:30:08.428Z,490.20
2019-04-06T02:31:08.391Z,492.22
2019-04-06T02:32:08.506Z,490.77
2019-04-06T02:33:08.361Z,491.79
2019-04-06T02:34:08.417Z,491.23
2019-04-06T02:35:08.429Z,490.10
2019-04-06T02:36:08.326Z,492.05
2019-04-06T02:37:08.322Z,492.38
2019-04-06T02:38:08.315Z,493.54
2019-04-06T02:39:08.379Z,492.69
2019-04-06T02:40:08.429Z,492.63
2019-04-06T02:41:08.356Z,494.27
2019-04-06T02:42:08.259Z,493.05
2019-04-06T02:43:08.314Z,493.80
2019-04-06T02:44:08.246Z,492.79
2019-04-06T02:45:08.258Z,495.83
2019-04-06T02:46:08.220Z,495.65
2019-04-06T02:47:08.386Z,493.45
2019-04-06T02:48:08.204Z,494.31
2019-04-06T02:49:08.203Z,493.94
2019-04-06T02:50:08.193Z,493.38
2019-04-06T02:51:08.156Z,494.29
2019-04-06T02:52:08.194Z,494.40
2019-04-06T02:53:08.134Z,494.81
2019-04-06T02:54:08.142Z,492.73
2019-04-06T02:55:08.151Z,495.29
2019-04-06T02:56:08.117Z,494.34
2019-04-06T02:57:08.095Z,494.41
2019-04-06T02:58:08.093Z,493.84
2019-04-06T02:59:08.094Z,494.40
2019-04-06T03:00:08.077Z,494.48
2019-04-06T03:01:08.062Z,492.18
2019-04-06T03:02:08.040Z,493.01
2019-04-06T03:03:08.033Z,493.07
2019-04-06T03:04:08.019Z,491.98
2019-04-06T03:05:08.001Z,490.68
2019-04-06T03:06:08.222Z,490.64
2019-04-06T03:07:07.988Z,492.42
2019-04-06T03:08:07.975Z,492.16
2019-04-06T03:09:11.335Z,492.42
2019-04-06T03:10:08.159Z,489.96
2019-04-06T03:11:07.972Z,491.75
2019-04-06T03:12:07.934Z,492.63
2019-04-06T03:13:07.933Z,490.99
2019-04-06T03:14:07.924Z,489.85
2019-04-06T03:15:08.037Z,488.61
2019-04-06T03:16:07.901Z,486.79
2019-04-06T03:17:07.881Z,487.72
2019-04-06T03:18:07.908Z,486.93
2019-04-06T03:19:07.899Z,486.58
2019-04-06T03:20:07.847Z,488.00
2019-04-06T03:21:07.841Z,489.33
2019-04-06T03:22:07.806Z,490.00
2019-04-06T03:23:07.815Z,489.17
2019-04-06T03:24:07.788Z,489.88
2019-04-06T03:25:07.848Z,490.26
2019-04-06T03:26:07.791Z,490.43
2019-04-06T03:27:07.777Z,490.00
2019-04-06T03:28:07.753Z,489.79
2019-04-06T03:29:07.850Z,492.04
2019-04-06T03:30:08.138Z,491.10
2019-04-06T03:31:07.743Z,492.13
2019-04-06T03:32:07.709Z,492.85
2019-04-06T03:33:07.690Z,493.28
2019-04-06T03:34:07.693Z,492.48
2019-04-06T03:35:07.665Z,490.86
2019-04-06T03:36:07.673Z,493.83
2019-04-06T03:37:07.669Z,492.63
2019-04-06T03:38:07.643Z,490.70
2019-04-06T03:39:07.643Z,490.38
2019-04-06T03:40:07.772Z,492.82
2019-04-06T03:41:07.619Z,493.20
2019-04-06T03:42:10.487Z,490.42
2019-04-06T03:43:07.705Z,492.58
2019-04-06T03:44:07.569Z,494.43
2019-04-06T03:45:07.562Z,493.50
2019-04-06T03:46:07.561Z,493.20
2019-04-06T03:47:07.570Z,492.49
2019-04-06T03:48:07.539Z,491.34
2019-04-06T03:49:07.555Z,491.96
2019-04-06T03:50:07.507Z,492.77
2019-04-06T03:51:07.515Z,494.27
2019-04-06T03:52:07.501Z,493.93
2019-04-06T03:53:07.471Z,493.98
2019-04-06T03:54:07.671Z,493.00
2019-04-06T03:55:07.459Z,492.26
2019-04-06T03:56:07.627Z,495.01
2019-04-06T03:57:14.497Z,494.47
2019-04-06T03:58:08.574Z,494.19
2019-04-06T03:59:07.403Z,494.61
2019-04-06T04:00:07.453Z,495.25
2019-04-06T04:01:07.389Z,495.28
2019-04-06T04:02:07.385Z,495.17
2019-04-06T04:03:07.358Z,495.24
2019-04-06T04:04:07.349Z,494.94
2019-04-06T04:05:07.376Z,496.68
2019-04-06T04:06:07.340Z,496.93
2019-04-06T04:07:07.361Z,495.99
2019-04-06T04:08:07.294Z,493.46
2019-04-06T04:09:07.442Z,494.98
2019-04-06T04:10:07.272Z,497.16
2019-04-06T04:11:07.274Z,493.99
2019-04-06T04:12:07.296Z,492.23
2019-04-06T04:13:07.264Z,493.09
2019-04-06T04:14:07.504Z,492.84
2019-04-06T04:15:07.225Z,492.29
2019-04-06T04:16:07.393Z,493.28
2019-04-06T04:17:07.219Z,491.19
2019-04-06T04:18:07.191Z,493.36
2019-04-06T04:19:07.190Z,494.72
2019-04-06T04:20:07.170Z,495.02
2019-04-06T04:21:07.160Z,493.53
2019-04-06T04:22:07.173Z,496.34
2019-04-06T04:23:07.144Z,495.04
2019-04-06T04:24:07.268Z,489.86
2019-04-06T04:25:07.137Z,492.97
2019-04-06T04:26:07.102Z,492.82
2019-04-06T04:27:07.210Z,491.69
2019-04-06T04:28:07.103Z,491.40
2019-04-06T04:29:07.072Z,490.21
2019-04-06T04:30:07.065Z,494.26
2019-04-06T04:31:07.064Z,490.88
2019-04-06T04:32:07.097Z,492.52
2019-04-06T04:33:07.023Z,492.75
2019-04-06T04:34:07.042Z,493.87
2019-04-06T04:35:07.010Z,494.98
2019-04-06T04:36:07.005Z,496.96
2019-04-06T04:37:07.020Z,495.42
2019-04-06T04:38:07.343Z,497.15
2019-04-06T04:39:06.962Z,497.68
2019-04-06T04:40:06.951Z,497.46
2019-04-06T04:41:06.934Z,499.07
2019-04-06T04:42:06.956Z,497.08
2019-04-06T04:43:06.918Z,497.85
2019-04-06T04:44:06.901Z,494.34
2019-04-06T04:45:06.890Z,495.83
2019-04-06T04:46:06.877Z,495.27
2019-04-06T04:47:07.225Z,494.90
2019-04-06T04:48:06.858Z,493.87
2019-04-06T04:49:06.845Z,495.08
2019-04-06T04:50:06.893Z,495.51
2019-04-06T04:51:06.820Z,494.58
2019-04-06T04:52:06.862Z,493.22
2019-04-06T04:53:06.815Z,495.86
2019-04-06T04:54:06.787Z,489.60
2019-04-06T04:55:06.872Z,492.21
2019-04-06T04:56:06.775Z,490.94
2019-04-06T04:57:06.823Z,492.04
2019-04-06T04:58:06.765Z,492.71
2019-04-06T04:59:06.737Z,495.30
2019-04-06T05:00:06.771Z,494.19
2019-04-06T05:01:06.705Z,494.78
2019-04-06T05:02:07.075Z,496.71
2019-04-06T05:03:06.713Z,494.98
2019-04-06T05:04:06.685Z,495.29
2019-04-06T05:05:09.179Z,494.01
2019-04-06T05:06:06.653Z,495.74
2019-04-06T05:07:06.660Z,494.69
2019-04-06T05:08:06.655Z,494.72
2019-04-06T05:09:06.635Z,495.19
2019-04-06T05:10:06.765Z,495.11
2019-04-06T05:11:06.593Z,493.86
2019-04-06T05:12:06.586Z,493.30
2019-04-06T05:13:06.669Z,494.91
2019-04-06T05:14:06.654Z,493.57
2019-04-06T05:15:06.563Z,491.56
2019-04-06T05:16:06.557Z,493.44
2019-04-06T05:17:06.604Z,491.65
2019-04-06T05:18:06.553Z,493.76
2019-04-06T05:19:06.539Z,494.99
2019-04-06T05:20:06.507Z,493.67
2019-04-06T05:21:06.495Z,494.33
2019-04-06T05:22:06.482Z,493.32
2019-04-06T05:23:06.597Z,494.52
2019-04-06T05:24:06.467Z,496.19
2019-04-06T05:25:06.684Z,494.46
2019-04-06T05:26:06.561Z,495.61
2019-04-06T05:27:06.419Z,495.21
2019-04-06T05:28:06.424Z,495.73
2019-04-06T05:29:06.429Z,493.27
2019-04-06T05:30:06.549Z,494.10
2019-04-06T05:31:06.380Z,492.96
2019-04-06T05:32:06.379Z,495.89
2019-04-06T05:33:06.377Z,491.87
2019-04-06T05:34:06.354Z,494.71
2019-04-06T05:35:06.353Z,493.68
2019-04-06T05:36:06.327Z,495.04
2019-04-06T05:37:06.320Z,494.88
2019-04-06T05:38:06.445Z,495.02
2019-04-06T05:39:06.298Z,495.44
2019-04-06T05:40:06.419Z,494.76
2019-04-06T05:41:06.426Z,495.52
2019-04-06T05:42:06.266Z,497.54
2019-04-06T05:43:06.272Z,495.88
2019-04-06T05:44:06.271Z,494.83
2019-04-06T05:45:06.230Z,496.85
2019-04-06T05:46:06.241Z,494.36
2019-04-06T05:47:06.200Z,493.25
2019-04-06T05:48:06.188Z,494.66
2019-04-06T05:49:06.221Z,494.29
2019-04-06T05:50:06.301Z,493.48
2019-04-06T05:51:06.166Z,490.70
2019-04-06T05:52:06.161Z,488.88
2019-04-06T05:53:06.133Z,487.12
2019-04-06T05:54:06.150Z,488.74
2019-04-06T05:55:06.120Z,488.80
2019-04-06T05:56:06.106Z,489.68
2019-04-06T05:57:06.128Z,488.10
2019-04-06T05:58:09.794Z,488.40
2019-04-06T05:59:06.307Z,491.53
2019-04-06T06:00:09.712Z,493.54
2019-04-06T06:01:06.057Z,496.09
2019-04-06T06:02:09.599Z,494.33
2019-04-06T06:03:06.157Z,493.74
2019-04-06T06:04:06.046Z,493.11
2019-04-06T06:05:06.017Z,493.74
2019-04-06T06:06:06.034Z,493.87
2019-04-06T06:07:05.986Z,492.17
2019-04-06T06:08:05.976Z,490.64
2019-04-06T06:09:05.982Z,492.31
2019-04-06T06:10:05.948Z,490.20
2019-04-06T06:11:06.119Z,491.72
2019-04-06T06:12:05.946Z,491.16
2019-04-06T06:13:05.926Z,491.89
2019-04-06T06:14:05.918Z,493.52
2019-04-06T06:15:05.888Z,493.66
2019-04-06T06:16:05.878Z,491.06
2019-04-06T06:17:05.885Z,493.69
2019-04-06T06:18:05.863Z,491.69
2019-04-06T06:19:05.868Z,493.40
2019-04-06T06:20:05.843Z,487.69
2019-04-06T06:21:05.827Z,487.93
2019-04-06T06:22:05.978Z,490.78
2019-04-06T06:23:05.803Z,492.83
2019-04-06T06:24:05.796Z,488.43
2019-04-06T06:25:05.779Z,490.98
2019-04-06T06:26:05.986Z,493.47
2019-04-06T06:27:05.758Z,491.52
2019-04-06T06:28:14.179Z,490.44
2019-04-06T06:29:06.747Z,490.08
2019-04-06T06:30:05.723Z,490.23
2019-04-06T06:31:05.706Z,490.96
2019-04-06T06:32:05.695Z,490.51
2019-04-06T06:33:05.726Z,493.32
2019-04-06T06:34:05.699Z,491.98
2019-04-06T06:35:05.682Z,491.40
2019-04-06T06:36:05.658Z,490.81
2019-04-06T06:37:05.647Z,489.47
2019-04-06T06:38:05.636Z,488.85
2019-04-06T06:39:05.646Z,491.28
2019-04-06T06:40:05.608Z,490.51
2019-04-06T06:41:05.596Z,491.82
2019-04-06T06:42:05.597Z,493.61
2019-04-06T06:43:05.829Z,492.46
2019-04-06T06:44:05.691Z,492.42
2019-04-06T06:45:05.553Z,492.68
2019-04-06T06:46:05.572Z,492.68
2019-04-06T06:47:05.604Z,493.39
2019-04-06T06:48:05.522Z,494.46
2019-04-06T06:49:05.514Z,495.42
2019-04-06T06:50:05.537Z,495.80
2019-04-06T06:51:05.500Z,494.45
2019-04-06T06:52:05.467Z,493.10
2019-04-06T06:53:05.472Z,497.61
2019-04-06T06:54:07.346Z,495.33
2019-04-06T06:55:05.482Z,495.55
2019-04-06T06:56:05.431Z,493.26
2019-04-06T06:57:05.510Z,489.59
2019-04-06T06:58:05.541Z,493.07
2019-04-06T06:59:05.406Z,491.62
2019-04-06T07:00:05.479Z,493.59
2019-04-06T07:01:05.388Z,490.77
2019-04-06T07:02:05.373Z,491.68
2019-04-06T07:03:05.368Z,495.75
2019-04-06T07:04:05.555Z,492.79
2019-04-06T07:05:05.403Z,490.22
2019-04-06T07:06:05.482Z,492.12
2019-04-06T07:07:05.326Z,490.39
2019-04-06T07:08:05.322Z,496.31
2019-04-06T07:09:05.287Z,496.77
2019-04-06T07:10:06.422Z,493.91
2019-04-06T07:11:05.263Z,495.04
2019-04-06T07:12:05.247Z,498.28
2019-04-06T07:13:05.255Z,498.09
2019-04-06T07:14:05.266Z,496.53
2019-04-06T07:15:05.231Z,497.24
2019-04-06T07:16:05.359Z,497.98
2019-04-06T07:17:05.228Z,496.61
2019-04-06T07:18:05.193Z,496.82
2019-04-06T07:19:05.199Z,498.41
2019-04-06T07:20:05.182Z,498.21
2019-04-06T07:21:05.160Z,499.75
2019-04-06T07:22:05.153Z,498.73
2019-04-06T07:23:05.252Z,497.51
2019-04-06T07:24:05.149Z,497.28
2019-04-06T07:25:05.126Z,494.88
2019-04-06T07:26:05.169Z,495.65
2019-04-06T07:27:05.120Z,495.90
2019-04-06T07:28:05.102Z,498.31
2019-04-06T07:29:05.074Z,494.60
2019-04-06T07:30:05.095Z,494.50
2019-04-06T07:31:05.052Z,496.43
2019-04-06T07:32:05.120Z,496.99
2019-04-06T07:33:05.029Z,494.55
2019-04-06T07:34:05.007Z,493.54
2019-04-06T07:35:05.013Z,495.76
2019-04-06T07:36:05.007Z,494.46
2019-04-06T07:37:04.987Z,491.37
2019-04-06T07:38:04.980Z,493.17
2019-04-06T07:39:04.957Z,493.34
2019-04-06T07:40:04.949Z,494.06
2019-04-06T07:41:05.099Z,497.84
2019-04-06T07:42:04.924Z,495.35
2019-04-06T07:43:04.914Z,494.52
2019-04-06T07:44:06.105Z,495.57
2019-04-06T07:45:04.895Z,497.99
2019-04-06T07:46:05.048Z,496.52
2019-04-06T07:47:04.963Z,493.27
2019-04-06T07:48:04.913Z,493.78
2019-04-06T07:49:09.179Z,493.09
2019-04-06T07:50:05.840Z,495.54
2019-04-06T07:51:04.849Z,495.52
2019-04-06T07:52:04.834Z,499.21
2019-04-06T07:53:04.817Z,499.43
2019-04-06T07:54:04.794Z,499.65
2019-04-06T07:55:04.805Z,498.66
2019-04-06T07:56:04.804Z,498.18
2019-04-06T07:57:04.753Z,497.01
2019-04-06T07:58:04.751Z,497.45
2019-04-06T07:59:05.006Z,496.31
2019-04-06T08:00:04.740Z,497.51
2019-04-06T08:01:04.753Z,496.20
2019-04-06T08:02:04.755Z,499.72
2019-04-06T08:03:04.761Z,494.49
2019-04-06T08:04:04.859Z,493.82
2019-04-06T08:05:04.718Z,495.09
2019-04-06T08:06:04.656Z,496.14
2019-04-06T08:07:04.877Z,494.33
2019-04-06T08:08:04.657Z,495.94
2019-04-06T08:09:04.633Z,495.94
2019-04-06T08:10:04.615Z,496.25
2019-04-06T08:11:04.734Z,497.32
2019-04-06T08:12:04.628Z,496.66
2019-04-06T08:13:04.589Z,495.43
2019-04-06T08:14:04.810Z,495.57
2019-04-06T08:15:04.554Z,497.69
2019-04-06T08:16:04.544Z,496.41
2019-04-06T08:17:04.566Z,497.97
2019-04-06T08:18:04.612Z,494.76
2019-04-06T08:19:04.520Z,497.74
2019-04-06T08:20:04.527Z,497.85
2019-04-06T08:21:04.494Z,496.50
2019-04-06T08:22:04.680Z,493.99
2019-04-06T08:23:04.462Z,494.90
2019-04-06T08:24:04.466Z,494.04
2019-04-06T08:25:04.449Z,494.45
2019-04-06T08:26:04.444Z,496.47
2019-04-06T08:27:04.490Z,495.01
2019-04-06T08:28:04.419Z,496.79
2019-04-06T08:29:04.399Z,497.36
2019-04-06T08:30:04.674Z,498.02
2019-04-06T08:31:04.374Z,498.64
2019-04-06T08:32:04.393Z,497.11
2019-04-06T08:33:04.352Z,499.25
2019-04-06T08:34:04.367Z,501.47
2019-04-06T08:35:04.346Z,498.50
2019-04-06T08:36:04.338Z,497.68
2019-04-06T08:37:04.490Z,500.14
2019-04-06T08:38:04.318Z,499.51
2019-04-06T08:39:04.304Z,498.86
2019-04-06T08:40:04.296Z,499.84
2019-04-06T08:41:04.280Z,498.64
2019-04-06T08:42:04.249Z,500.04
2019-04-06T08:43:04.456Z,498.38
2019-04-06T08:44:04.242Z,499.76
2019-04-06T08:45:04.236Z,498.18
2019-04-06T08:46:04.216Z,497.08
2019-04-06T08:47:04.217Z,498.92
2019-04-06T08:48:04.244Z,500.67
2019-04-06T08:49:04.379Z,500.29
2019-04-06T08:50:04.180Z,501.31
2019-04-06T08:51:04.158Z,499.76
2019-04-06T08:52:04.156Z,502.69
2019-04-06T08:53:04.349Z,500.74
2019-04-06T08:54:04.248Z,503.75
2019-04-06T08:55:04.106Z,502.18
2019-04-06T08:56:04.169Z,496.75
2019-04-06T08:57:04.092Z,496.86
2019-04-06T08:58:04.120Z,498.90
2019-04-06T08:59:11.220Z,497.05
2019-04-06T09:00:05.057Z,496.52
2019-04-06T09:01:04.043Z,496.28
2019-04-06T09:02:04.190Z,495.73
2019-04-06T09:03:04.060Z,497.02
2019-04-06T09:04:04.015Z,494.19
2019-04-06T09:05:04.010Z,496.40
2019-04-06T09:06:03.988Z,498.52
2019-04-06T09:07:03.987Z,495.02
2019-04-06T09:08:03.974Z,495.01
2019-04-06T09:09:03.992Z,503.03
2019-04-06T09:10:03.977Z,498.49
2019-04-06T09:11:03.968Z,504.39
2019-04-06T09:12:04.042Z,499.53
2019-04-06T09:13:03.988Z,500.59
2019-04-06T09:14:03.935Z,501.90
2019-04-06T09:15:04.000Z,499.79
2019-04-06T09:16:04.170Z,496.98
2019-04-06T09:17:03.859Z,497.99
2019-04-06T09:18:03.865Z,497.95
2019-04-06T09:19:03.870Z,503.00
2019-04-06T09:20:04.101Z,502.33
2019-04-06T09:21:03.831Z,505.35
2019-04-06T09:22:03.825Z,503.06
2019-04-06T09:23:03.798Z,506.04
2019-04-06T09:24:03.818Z,506.01
2019-04-06T09:25:03.777Z,509.13
2019-04-06T09:26:03.774Z,506.86
2019-04-06T09:27:03.816Z,505.71
2019-04-06T09:28:03.754Z,505.11
2019-04-06T09:29:04.177Z,502.87
2019-04-06T09:30:03.739Z,499.48
2019-04-06T09:31:03.718Z,501.85
2019-04-06T09:32:03.704Z,500.02
2019-04-06T09:33:03.757Z,497.97
2019-04-06T09:34:03.683Z,501.54
2019-04-06T09:35:03.863Z,501.16
2019-04-06T09:36:03.659Z,500.65
2019-04-06T09:37:03.879Z,505.18
2019-04-06T09:38:03.640Z,504.74
2019-04-06T09:39:03.621Z,502.64
2019-04-06T09:40:03.650Z,503.53
2019-04-06T09:41:03.634Z,502.28
2019-04-06T09:42:03.674Z,503.44
2019-04-06T09:43:03.583Z,502.68
2019-04-06T09:44:03.569Z,503.80
2019-04-06T09:45:03.792Z,499.29
2019-04-06T09:46:03.557Z,503.27
2019-04-06T09:47:03.560Z,501.73
2019-04-06T09:48:03.535Z,498.85
2019-04-06T09:49:03.811Z,499.42
2019-04-06T09:50:03.515Z,498.94
2019-04-06T09:51:03.492Z,500.77
2019-04-06T09:52:03.492Z,506.34
2019-04-06T09:53:03.480Z,501.46
2019-04-06T09:54:06.415Z,503.77
2019-04-06T09:55:03.464Z,500.47
2019-04-06T09:56:03.436Z,503.52
2019-04-06T09:57:03.804Z,500.02
2019-04-06T09:58:03.494Z,507.63
2019-04-06T09:59:03.412Z,504.61
2019-04-06T10:00:03.427Z,501.65
2019-04-06T10:01:03.643Z,498.17
2019-04-06T10:02:03.374Z,495.63
2019-04-06T10:03:03.486Z,500.24
2019-04-06T10:04:03.360Z,498.41
2019-04-06T10:05:03.343Z,498.00
2019-04-06T10:06:03.534Z,501.39
2019-04-06T10:07:03.333Z,495.96
2019-04-06T10:08:03.353Z,500.14
2019-04-06T10:09:03.280Z,500.06
2019-04-06T10:10:03.359Z,498.30
2019-04-06T10:11:03.501Z,501.40
2019-04-06T10:12:04.447Z,502.83
2019-04-06T10:13:03.262Z,501.69
2019-04-06T10:14:03.271Z,501.37
2019-04-06T10:15:03.218Z,504.77
2019-04-06T10:16:03.221Z,508.12
2019-04-06T10:17:03.214Z,502.95
2019-04-06T10:18:03.196Z,499.78
2019-04-06T10:19:03.217Z,496.61
2019-04-06T10:20:03.174Z,496.82
2019-04-06T10:21:03.184Z,496.01
2019-04-06T10:22:03.143Z,503.90
2019-04-06T10:23:03.423Z,501.70
2019-04-06T10:24:03.128Z,510.96
2019-04-06T10:25:03.122Z,510.42
2019-04-06T10:26:03.302Z,507.19
2019-04-06T10:27:03.120Z,517.89
2019-04-06T10:28:03.078Z,503.14
2019-04-06T10:29:03.082Z,513.76
2019-04-06T10:30:03.285Z,505.23
2019-04-06T10:31:03.365Z,508.75
2019-04-06T10:32:03.553Z,505.03
2019-04-06T10:33:03.194Z,509.52
2019-04-06T10:34:03.108Z,503.40
2019-04-06T10:35:03.006Z,505.63
2019-04-06T10:36:03.188Z,505.03
2019-04-06T10:37:03.028Z,499.00
2019-04-06T10:38:02.973Z,508.91
2019-04-06T10:39:02.957Z,503.36
2019-04-06T10:40:02.951Z,502.67
2019-04-06T10:41:02.934Z,506.34
2019-04-06T10:42:02.945Z,502.69
2019-04-06T10:43:02.934Z,499.44
2019-04-06T10:44:02.911Z,499.45
2019-04-06T10:45:02.898Z,506.46
2019-04-06T10:46:02.885Z,504.11
2019-04-06T10:47:02.884Z,505.86
2019-04-06T10:48:02.854Z,499.66
2019-04-06T10:49:02.852Z,502.91
2019-04-06T10:50:02.826Z,504.09
2019-04-06T10:51:02.819Z,513.51
2019-04-06T10:52:02.829Z,506.14
2019-04-06T10:53:02.811Z,505.13
2019-04-06T10:54:03.059Z,505.63
2019-04-06T10:55:02.854Z,502.91
2019-04-06T10:56:02.766Z,503.61
2019-04-06T10:57:02.778Z,502.02
2019-04-06T10:58:02.772Z,498.49
2019-04-06T10:59:03.731Z,496.72
2019-04-06T11:00:03.454Z,493.66
2019-04-06T11:01:02.727Z,497.08
2019-04-06T11:02:02.711Z,500.64
2019-04-06T11:03:02.726Z,497.95
2019-04-06T11:04:02.679Z,505.88
2019-04-06T11:05:02.669Z,501.56
2019-04-06T11:06:02.668Z,498.59
2019-04-06T11:07:02.655Z,498.99
2019-04-06T11:08:02.659Z,499.04
2019-04-06T11:09:02.638Z,496.01
2019-04-06T11:10:02.619Z,505.16
2019-04-06T11:11:03.254Z,502.00
2019-04-06T11:12:02.597Z,497.51
2019-04-06T11:13:02.798Z,496.38
2019-04-06T11:14:02.567Z,503.36
2019-04-06T11:15:02.572Z,506.40
2019-04-06T11:16:02.699Z,498.11
2019-04-06T11:17:02.568Z,503.44
2019-04-06T11:18:02.523Z,504.83
2019-04-06T11:19:02.628Z,499.35
2019-04-06T11:20:02.501Z,509.85
2019-04-06T11:21:02.512Z,507.93
2019-04-06T11:22:02.525Z,504.59
2019-04-06T11:23:02.468Z,505.45
2019-04-06T11:24:02.610Z,502.85
2019-04-06T11:25:02.451Z,503.90
2019-04-06T11:26:02.697Z,498.64
2019-04-06T11:27:02.434Z,500.31
2019-04-06T11:28:03.965Z,504.09
2019-04-06T11:29:02.432Z,496.67
2019-04-06T11:30:11.995Z,502.40
2019-04-06T11:31:03.389Z,505.86
2019-04-06T11:32:02.545Z,495.93
2019-04-06T11:33:02.588Z,506.52
2019-04-06T11:34:02.372Z,509.04
2019-04-06T11:35:02.338Z,498.29
2019-04-06T11:36:02.325Z,498.17
2019-04-06T11:37:02.311Z,502.11
2019-04-06T11:38:02.315Z,494.75
2019-04-06T11:39:02.489Z,497.74
2019-04-06T11:40:02.300Z,505.05
2019-04-06T11:41:02.348Z,508.00
2019-04-06T11:42:02.264Z,502.31
2019-04-06T11:43:02.247Z,511.52
2019-04-06T11:44:02.253Z,512.72
2019-04-06T11:45:02.240Z,504.05
2019-04-06T11:46:02.288Z,507.23
2019-04-06T11:47:02.461Z,503.94
2019-04-06T11:48:02.196Z,496.49
2019-04-06T11:49:02.220Z,499.60
2019-04-06T11:50:02.172Z,499.39
2019-04-06T11:51:02.194Z,497.79
2019-04-06T11:52:02.152Z,503.73
2019-04-06T11:53:02.150Z,504.83
2019-04-06T11:54:02.317Z,502.82
2019-04-06T11:55:02.115Z,499.73
2019-04-06T11:56:02.112Z,512.25
2019-04-06T11:57:02.096Z,504.89
2019-04-06T11:58:02.199Z,521.11
2019-04-06T11:59:02.103Z,502.94
2019-04-06T12:00:02.400Z,505.69
2019-04-06T12:01:02.041Z,505.60
2019-04-06T12:02:02.039Z,506.47
2019-04-06T12:03:02.014Z,502.97
2019-04-06T12:04:02.300Z,498.34
2019-04-06T12:05:02.002Z,496.96
2019-04-06T12:06:02.336Z,502.05
2019-04-06T12:07:01.987Z,498.64
2019-04-06T12:08:01.973Z,500.02
2019-04-06T12:09:01.962Z,505.67
2019-04-06T12:10:01.941Z,511.38
2019-04-06T12:11:01.948Z,512.74
2019-04-06T12:12:01.928Z,499.99
2019-04-06T12:13:01.994Z,504.58
2019-04-06T12:14:01.962Z,505.87
2019-04-06T12:15:01.922Z,508.25
2019-04-06T12:16:01.889Z,519.38
2019-04-06T12:17:02.249Z,500.18
2019-04-06T12:18:02.343Z,491.54
2019-04-06T12:19:01.859Z,499.23
2019-04-06T12:20:01.836Z,502.79
2019-04-06T12:21:01.836Z,499.63
2019-04-06T12:22:01.919Z,498.53
2019-04-06T12:23:02.003Z,502.87
2019-04-06T12:24:01.807Z,508.29
2019-04-06T12:25:01.796Z,501.36
2019-04-06T12:26:01.764Z,497.08
2019-04-06T12:27:01.771Z,501.12
2019-04-06T12:28:01.994Z,504.10